sensor_id;sensor_type;location;lat;lon;timestamp;P1;durP1;ratioP1;P2;durP2;ratioP2
7657;SDS011;8462;53.156;8.220;2022-08-21T00:00:13;4.40;;;2.80;;
7657;SDS011;8462;53.156;8.220;2022-08-21T00:02:45;5.63;;;3.07;;
7657;SDS011;8462;53.156;8.220;2022-08-21T00:05:14;6.53;;;3.43;;
7657;SDS011;8462;53.156;8.220;2022-08-21T00:07:42;4.80;;;3.20;;
7657;SDS011;8462;53.156;8.220;2022-08-21T00:10:09;5.97;;;3.47;;
7657;SDS011;8462;53.156;8.220;2022-08-21T00:12:36;8.23;;;5.27;;
7657;SDS011;8462;53.156;8.220;2022-08-21T00:15:04;9.07;;;3.60;;
7657;SDS011;8462;53.156;8.220;2022-08-21T00:17:32;7.13;;;3.70;;
7657;SDS011;8462;53.156;8.220;2022-08-21T00:20:01;7.27;;;4.30;;
7657;SDS011;8462;53.156;8.220;2022-08-21T00:22:29;5.00;;;3.30;;
7657;SDS011;8462;53.156;8.220;2022-08-21T00:24:56;12.00;;;4.63;;
7657;SDS011;8462;53.156;8.220;2022-08-21T00:27:23;8.27;;;5.27;;
7657;SDS011;8462;53.156;8.220;2022-08-21T00:29:50;4.30;;;3.60;;
7657;SDS011;8462;53.156;8.220;2022-08-21T00:32:21;6.00;;;3.40;;
7657;SDS011;8462;53.156;8.220;2022-08-21T00:34:49;8.00;;;4.13;;
7657;SDS011;8462;53.156;8.220;2022-08-21T00:37:18;10.70;;;5.77;;
7657;SDS011;8462;53.156;8.220;2022-08-21T00:39:45;7.47;;;4.30;;
7657;SDS011;8462;53.156;8.220;2022-08-21T00:42:13;5.77;;;3.33;;
7657;SDS011;8462;53.156;8.220;2022-08-21T00:44:41;6.37;;;4.00;;
7657;SDS011;8462;53.156;8.220;2022-08-21T00:47:08;4.70;;;2.80;;
7657;SDS011;8462;53.156;8.220;2022-08-21T00:49:35;4.87;;;3.40;;
7657;SDS011;8462;53.156;8.220;2022-08-21T00:52:03;6.43;;;3.50;;
7657;SDS011;8462;53.156;8.220;2022-08-21T00:54:34;3.37;;;3.03;;
7657;SDS011;8462;53.156;8.220;2022-08-21T00:57:07;7.20;;;3.27;;
7657;SDS011;8462;53.156;8.220;2022-08-21T00:59:38;6.93;;;3.03;;
7657;SDS011;8462;53.156;8.220;2022-08-21T01:02:09;6.30;;;2.93;;
7657;SDS011;8462;53.156;8.220;2022-08-21T01:04:36;7.40;;;3.20;;
7657;SDS011;8462;53.156;8.220;2022-08-21T01:07:04;6.60;;;3.20;;
7657;SDS011;8462;53.156;8.220;2022-08-21T01:09:31;6.20;;;3.30;;
7657;SDS011;8462;53.156;8.220;2022-08-21T01:12:00;4.80;;;3.10;;
7657;SDS011;8462;53.156;8.220;2022-08-21T01:14:28;13.30;;;7.03;;
7657;SDS011;8462;53.156;8.220;2022-08-21T01:16:55;4.10;;;2.97;;
7657;SDS011;8462;53.156;8.220;2022-08-21T01:19:24;4.10;;;2.77;;
7657;SDS011;8462;53.156;8.220;2022-08-21T01:21:55;4.43;;;2.70;;
7657;SDS011;8462;53.156;8.220;2022-08-21T01:24:24;6.83;;;3.03;;
7657;SDS011;8462;53.156;8.220;2022-08-21T01:26:52;4.90;;;2.87;;
7657;SDS011;8462;53.156;8.220;2022-08-21T01:29:23;6.43;;;3.37;;
7657;SDS011;8462;53.156;8.220;2022-08-21T01:31:55;5.33;;;3.00;;
7657;SDS011;8462;53.156;8.220;2022-08-21T01:34:22;4.40;;;2.70;;
7657;SDS011;8462;53.156;8.220;2022-08-21T01:36:49;6.00;;;3.33;;
7657;SDS011;8462;53.156;8.220;2022-08-21T01:39:18;3.27;;;2.33;;
7657;SDS011;8462;53.156;8.220;2022-08-21T01:41:46;5.10;;;3.00;;
7657;SDS011;8462;53.156;8.220;2022-08-21T01:44:13;7.57;;;3.23;;
7657;SDS011;8462;53.156;8.220;2022-08-21T01:46:39;5.43;;;3.00;;
7657;SDS011;8462;53.156;8.220;2022-08-21T01:49:07;6.53;;;2.77;;
7657;SDS011;8462;53.156;8.220;2022-08-21T01:51:34;5.50;;;3.10;;
7657;SDS011;8462;53.156;8.220;2022-08-21T01:54:01;5.00;;;2.53;;
7657;SDS011;8462;53.156;8.220;2022-08-21T01:56:34;6.10;;;3.77;;
7657;SDS011;8462;53.156;8.220;2022-08-21T01:59:03;5.33;;;3.33;;
7657;SDS011;8462;53.156;8.220;2022-08-21T02:01:30;4.13;;;2.70;;
7657;SDS011;8462;53.156;8.220;2022-08-21T02:03:57;5.37;;;3.17;;
7657;SDS011;8462;53.156;8.220;2022-08-21T02:06:24;5.87;;;3.43;;
7657;SDS011;8462;53.156;8.220;2022-08-21T02:08:52;7.67;;;3.47;;
7657;SDS011;8462;53.156;8.220;2022-08-21T02:11:19;8.73;;;3.37;;
7657;SDS011;8462;53.156;8.220;2022-08-21T02:13:48;4.00;;;2.87;;
7657;SDS011;8462;53.156;8.220;2022-08-21T02:16:14;6.60;;;2.83;;
7657;SDS011;8462;53.156;8.220;2022-08-21T02:18:42;5.80;;;2.83;;
7657;SDS011;8462;53.156;8.220;2022-08-21T02:21:09;6.27;;;3.00;;
7657;SDS011;8462;53.156;8.220;2022-08-21T02:23:36;8.00;;;3.30;;
7657;SDS011;8462;53.156;8.220;2022-08-21T02:26:04;7.50;;;3.10;;
7657;SDS011;8462;53.156;8.220;2022-08-21T02:28:34;4.30;;;2.53;;
7657;SDS011;8462;53.156;8.220;2022-08-21T02:31:03;3.77;;;2.60;;
7657;SDS011;8462;53.156;8.220;2022-08-21T02:33:31;3.83;;;2.63;;
7657;SDS011;8462;53.156;8.220;2022-08-21T02:35:59;3.67;;;2.37;;
7657;SDS011;8462;53.156;8.220;2022-08-21T02:38:27;5.93;;;3.10;;
7657;SDS011;8462;53.156;8.220;2022-08-21T02:40:58;3.97;;;2.80;;
7657;SDS011;8462;53.156;8.220;2022-08-21T02:43:27;2.90;;;2.30;;
7657;SDS011;8462;53.156;8.220;2022-08-21T02:45:54;4.67;;;2.60;;
7657;SDS011;8462;53.156;8.220;2022-08-21T02:48:25;4.17;;;2.47;;
7657;SDS011;8462;53.156;8.220;2022-08-21T02:50:53;7.07;;;3.13;;
7657;SDS011;8462;53.156;8.220;2022-08-21T02:53:21;5.93;;;2.63;;
7657;SDS011;8462;53.156;8.220;2022-08-21T02:55:49;6.63;;;2.87;;
7657;SDS011;8462;53.156;8.220;2022-08-21T02:58:20;4.37;;;2.43;;
7657;SDS011;8462;53.156;8.220;2022-08-21T03:00:50;3.87;;;2.77;;
7657;SDS011;8462;53.156;8.220;2022-08-21T03:03:17;6.70;;;2.60;;
7657;SDS011;8462;53.156;8.220;2022-08-21T03:05:47;6.03;;;3.07;;
7657;SDS011;8462;53.156;8.220;2022-08-21T03:08:15;6.23;;;3.03;;
7657;SDS011;8462;53.156;8.220;2022-08-21T03:10:43;5.60;;;2.57;;
7657;SDS011;8462;53.156;8.220;2022-08-21T03:13:11;8.13;;;2.53;;
7657;SDS011;8462;53.156;8.220;2022-08-21T03:15:40;6.33;;;3.00;;
7657;SDS011;8462;53.156;8.220;2022-08-21T03:18:08;5.97;;;2.70;;
7657;SDS011;8462;53.156;8.220;2022-08-21T03:20:37;5.63;;;2.90;;
7657;SDS011;8462;53.156;8.220;2022-08-21T03:23:08;4.63;;;2.77;;
7657;SDS011;8462;53.156;8.220;2022-08-21T03:25:35;9.03;;;3.00;;
7657;SDS011;8462;53.156;8.220;2022-08-21T03:28:03;3.97;;;2.60;;
7657;SDS011;8462;53.156;8.220;2022-08-21T03:30:32;6.43;;;2.90;;
7657;SDS011;8462;53.156;8.220;2022-08-21T03:32:59;4.40;;;3.10;;
7657;SDS011;8462;53.156;8.220;2022-08-21T03:35:27;4.57;;;2.97;;
7657;SDS011;8462;53.156;8.220;2022-08-21T03:37:54;8.17;;;3.13;;
7657;SDS011;8462;53.156;8.220;2022-08-21T03:40:23;8.87;;;3.43;;
7657;SDS011;8462;53.156;8.220;2022-08-21T03:42:50;5.47;;;3.50;;
7657;SDS011;8462;53.156;8.220;2022-08-21T03:45:17;5.33;;;4.00;;
7657;SDS011;8462;53.156;8.220;2022-08-21T03:47:53;4.20;;;3.37;;
7657;SDS011;8462;53.156;8.220;2022-08-21T03:50:23;5.97;;;4.03;;
7657;SDS011;8462;53.156;8.220;2022-08-21T03:52:50;6.60;;;3.70;;
7657;SDS011;8462;53.156;8.220;2022-08-21T03:55:17;5.53;;;3.70;;
7657;SDS011;8462;53.156;8.220;2022-08-21T03:57:46;5.37;;;3.93;;
7657;SDS011;8462;53.156;8.220;2022-08-21T04:00:14;5.63;;;3.80;;
7657;SDS011;8462;53.156;8.220;2022-08-21T04:02:44;4.53;;;3.67;;
7657;SDS011;8462;53.156;8.220;2022-08-21T04:05:12;5.17;;;3.40;;
7657;SDS011;8462;53.156;8.220;2022-08-21T04:07:52;5.47;;;4.13;;
7657;SDS011;8462;53.156;8.220;2022-08-21T04:10:19;5.37;;;4.00;;
7657;SDS011;8462;53.156;8.220;2022-08-21T04:12:48;8.70;;;3.83;;
7657;SDS011;8462;53.156;8.220;2022-08-21T04:15:14;8.23;;;4.10;;
7657;SDS011;8462;53.156;8.220;2022-08-21T04:17:42;5.60;;;4.20;;
7657;SDS011;8462;53.156;8.220;2022-08-21T04:20:09;5.43;;;4.23;;
7657;SDS011;8462;53.156;8.220;2022-08-21T04:22:36;9.97;;;5.00;;
7657;SDS011;8462;53.156;8.220;2022-08-21T04:25:03;5.87;;;4.10;;
7657;SDS011;8462;53.156;8.220;2022-08-21T04:27:31;7.13;;;4.70;;
7657;SDS011;8462;53.156;8.220;2022-08-21T04:29:59;7.77;;;4.23;;
7657;SDS011;8462;53.156;8.220;2022-08-21T04:32:26;8.00;;;4.77;;
7657;SDS011;8462;53.156;8.220;2022-08-21T04:34:57;6.87;;;4.97;;
7657;SDS011;8462;53.156;8.220;2022-08-21T04:37:24;8.73;;;4.50;;
7657;SDS011;8462;53.156;8.220;2022-08-21T04:39:51;7.87;;;5.60;;
7657;SDS011;8462;53.156;8.220;2022-08-21T04:42:18;7.33;;;4.93;;
7657;SDS011;8462;53.156;8.220;2022-08-21T04:44:47;7.67;;;5.00;;
7657;SDS011;8462;53.156;8.220;2022-08-21T04:47:16;5.87;;;4.60;;
7657;SDS011;8462;53.156;8.220;2022-08-21T04:49:43;6.90;;;4.90;;
7657;SDS011;8462;53.156;8.220;2022-08-21T04:52:10;6.70;;;4.40;;
7657;SDS011;8462;53.156;8.220;2022-08-21T04:54:39;7.80;;;4.63;;
7657;SDS011;8462;53.156;8.220;2022-08-21T04:57:08;8.50;;;6.07;;
7657;SDS011;8462;53.156;8.220;2022-08-21T04:59:37;9.47;;;6.50;;
7657;SDS011;8462;53.156;8.220;2022-08-21T05:02:07;10.60;;;6.07;;
7657;SDS011;8462;53.156;8.220;2022-08-21T05:04:38;9.47;;;5.97;;
7657;SDS011;8462;53.156;8.220;2022-08-21T05:07:10;9.43;;;6.10;;
7657;SDS011;8462;53.156;8.220;2022-08-21T05:09:41;7.70;;;5.73;;
7657;SDS011;8462;53.156;8.220;2022-08-21T05:12:09;8.37;;;5.10;;
7657;SDS011;8462;53.156;8.220;2022-08-21T05:14:36;9.10;;;5.43;;
7657;SDS011;8462;53.156;8.220;2022-08-21T05:17:03;6.87;;;5.47;;
7657;SDS011;8462;53.156;8.220;2022-08-21T05:19:30;6.60;;;4.90;;
7657;SDS011;8462;53.156;8.220;2022-08-21T05:21:59;7.43;;;4.67;;
7657;SDS011;8462;53.156;8.220;2022-08-21T05:24:26;6.57;;;4.33;;
7657;SDS011;8462;53.156;8.220;2022-08-21T05:26:53;6.10;;;4.90;;
7657;SDS011;8462;53.156;8.220;2022-08-21T05:29:20;8.57;;;4.10;;
7657;SDS011;8462;53.156;8.220;2022-08-21T05:31:47;8.63;;;4.63;;
7657;SDS011;8462;53.156;8.220;2022-08-21T05:34:17;8.40;;;4.10;;
7657;SDS011;8462;53.156;8.220;2022-08-21T05:36:45;7.47;;;4.03;;
7657;SDS011;8462;53.156;8.220;2022-08-21T05:39:14;5.70;;;4.30;;
7657;SDS011;8462;53.156;8.220;2022-08-21T05:41:41;5.18;;;4.03;;
7657;SDS011;8462;53.156;8.220;2022-08-21T05:44:08;7.07;;;4.57;;
7657;SDS011;8462;53.156;8.220;2022-08-21T05:46:35;9.85;;;4.32;;
7657;SDS011;8462;53.156;8.220;2022-08-21T05:49:02;6.60;;;4.28;;
7657;SDS011;8462;53.156;8.220;2022-08-21T05:51:29;6.80;;;3.70;;
7657;SDS011;8462;53.156;8.220;2022-08-21T05:53:56;6.93;;;4.07;;
7657;SDS011;8462;53.156;8.220;2022-08-21T05:56:25;7.03;;;4.40;;
7657;SDS011;8462;53.156;8.220;2022-08-21T05:58:52;7.75;;;4.15;;
7657;SDS011;8462;53.156;8.220;2022-08-21T06:01:19;5.47;;;4.75;;
7657;SDS011;8462;53.156;8.220;2022-08-21T06:03:46;4.43;;;3.47;;
7657;SDS011;8462;53.156;8.220;2022-08-21T06:06:12;7.35;;;3.70;;
7657;SDS011;8462;53.156;8.220;2022-08-21T06:08:39;5.93;;;3.75;;
7657;SDS011;8462;53.156;8.220;2022-08-21T06:11:07;5.90;;;3.88;;
7657;SDS011;8462;53.156;8.220;2022-08-21T06:13:37;7.28;;;4.53;;
7657;SDS011;8462;53.156;8.220;2022-08-21T06:16:07;4.47;;;3.50;;
7657;SDS011;8462;53.156;8.220;2022-08-21T06:18:35;6.18;;;4.18;;
7657;SDS011;8462;53.156;8.220;2022-08-21T06:21:03;4.93;;;3.58;;
7657;SDS011;8462;53.156;8.220;2022-08-21T06:23:31;4.13;;;3.63;;
7657;SDS011;8462;53.156;8.220;2022-08-21T06:25:58;6.50;;;5.20;;
7657;SDS011;8462;53.156;8.220;2022-08-21T06:28:25;6.22;;;5.00;;
7657;SDS011;8462;53.156;8.220;2022-08-21T06:30:53;6.35;;;3.70;;
7657;SDS011;8462;53.156;8.220;2022-08-21T06:33:20;7.95;;;3.60;;
7657;SDS011;8462;53.156;8.220;2022-08-21T06:35:47;5.88;;;3.63;;
7657;SDS011;8462;53.156;8.220;2022-08-21T06:38:14;6.50;;;3.47;;
7657;SDS011;8462;53.156;8.220;2022-08-21T06:40:41;6.65;;;3.75;;
7657;SDS011;8462;53.156;8.220;2022-08-21T06:43:09;5.93;;;2.97;;
7657;SDS011;8462;53.156;8.220;2022-08-21T06:45:37;8.13;;;3.65;;
7657;SDS011;8462;53.156;8.220;2022-08-21T06:48:06;4.50;;;3.30;;
7657;SDS011;8462;53.156;8.220;2022-08-21T06:50:36;7.32;;;4.00;;
7657;SDS011;8462;53.156;8.220;2022-08-21T06:53:05;6.95;;;3.83;;
7657;SDS011;8462;53.156;8.220;2022-08-21T06:55:33;6.32;;;3.50;;
7657;SDS011;8462;53.156;8.220;2022-08-21T06:58:00;5.40;;;2.78;;
7657;SDS011;8462;53.156;8.220;2022-08-21T07:00:27;8.23;;;4.30;;
7657;SDS011;8462;53.156;8.220;2022-08-21T07:02:55;6.03;;;3.65;;
7657;SDS011;8462;53.156;8.220;2022-08-21T07:05:25;5.55;;;2.80;;
7657;SDS011;8462;53.156;8.220;2022-08-21T07:07:53;6.05;;;2.92;;
7657;SDS011;8462;53.156;8.220;2022-08-21T07:10:20;5.07;;;2.83;;
7657;SDS011;8462;53.156;8.220;2022-08-21T07:12:47;4.05;;;2.83;;
7657;SDS011;8462;53.156;8.220;2022-08-21T07:15:14;5.70;;;2.92;;
7657;SDS011;8462;53.156;8.220;2022-08-21T07:17:41;5.10;;;3.00;;
7657;SDS011;8462;53.156;8.220;2022-08-21T07:20:08;7.10;;;3.38;;
7657;SDS011;8462;53.156;8.220;2022-08-21T07:22:36;4.15;;;2.60;;
7657;SDS011;8462;53.156;8.220;2022-08-21T07:25:05;3.83;;;3.17;;
7657;SDS011;8462;53.156;8.220;2022-08-21T07:27:33;7.50;;;2.53;;
7657;SDS011;8462;53.156;8.220;2022-08-21T07:30:00;4.13;;;2.38;;
7657;SDS011;8462;53.156;8.220;2022-08-21T07:32:26;4.13;;;3.08;;
7657;SDS011;8462;53.156;8.220;2022-08-21T07:34:54;7.10;;;2.50;;
7657;SDS011;8462;53.156;8.220;2022-08-21T07:37:21;7.95;;;3.92;;
7657;SDS011;8462;53.156;8.220;2022-08-21T07:39:49;8.30;;;3.47;;
7657;SDS011;8462;53.156;8.220;2022-08-21T07:42:16;6.60;;;3.00;;
7657;SDS011;8462;53.156;8.220;2022-08-21T07:44:43;4.97;;;2.67;;
7657;SDS011;8462;53.156;8.220;2022-08-21T07:47:10;6.05;;;3.00;;
7657;SDS011;8462;53.156;8.220;2022-08-21T07:49:37;5.35;;;2.50;;
7657;SDS011;8462;53.156;8.220;2022-08-21T07:52:04;4.65;;;2.38;;
7657;SDS011;8462;53.156;8.220;2022-08-21T07:54:32;6.27;;;2.90;;
7657;SDS011;8462;53.156;8.220;2022-08-21T07:57:00;4.97;;;2.80;;
7657;SDS011;8462;53.156;8.220;2022-08-21T07:59:27;5.77;;;2.60;;
7657;SDS011;8462;53.156;8.220;2022-08-21T08:01:54;6.53;;;2.50;;
7657;SDS011;8462;53.156;8.220;2022-08-21T08:04:22;4.57;;;2.93;;
7657;SDS011;8462;53.156;8.220;2022-08-21T08:06:49;6.23;;;2.80;;
7657;SDS011;8462;53.156;8.220;2022-08-21T08:09:16;7.07;;;2.63;;
7657;SDS011;8462;53.156;8.220;2022-08-21T08:11:43;4.73;;;2.10;;
7657;SDS011;8462;53.156;8.220;2022-08-21T08:14:12;6.37;;;2.83;;
7657;SDS011;8462;53.156;8.220;2022-08-21T08:16:38;3.93;;;2.30;;
7657;SDS011;8462;53.156;8.220;2022-08-21T08:19:05;6.00;;;2.40;;
7657;SDS011;8462;53.156;8.220;2022-08-21T08:21:32;4.80;;;2.40;;
7657;SDS011;8462;53.156;8.220;2022-08-21T08:24:00;3.40;;;2.10;;
7657;SDS011;8462;53.156;8.220;2022-08-21T08:26:27;6.97;;;2.00;;
7657;SDS011;8462;53.156;8.220;2022-08-21T08:28:54;6.43;;;2.33;;
7657;SDS011;8462;53.156;8.220;2022-08-21T08:31:23;4.17;;;1.23;;
7657;SDS011;8462;53.156;8.220;2022-08-21T08:33:50;4.60;;;1.87;;
7657;SDS011;8462;53.156;8.220;2022-08-21T08:36:17;4.30;;;2.00;;
7657;SDS011;8462;53.156;8.220;2022-08-21T08:38:45;5.03;;;2.80;;
7657;SDS011;8462;53.156;8.220;2022-08-21T08:41:14;6.10;;;2.60;;
7657;SDS011;8462;53.156;8.220;2022-08-21T08:43:44;8.30;;;2.10;;
7657;SDS011;8462;53.156;8.220;2022-08-21T08:46:15;4.83;;;2.93;;
7657;SDS011;8462;53.156;8.220;2022-08-21T08:48:49;4.70;;;2.50;;
7657;SDS011;8462;53.156;8.220;2022-08-21T08:51:21;5.10;;;2.57;;
7657;SDS011;8462;53.156;8.220;2022-08-21T08:53:52;7.00;;;2.50;;
7657;SDS011;8462;53.156;8.220;2022-08-21T08:56:26;4.57;;;2.37;;
7657;SDS011;8462;53.156;8.220;2022-08-21T08:58:56;6.55;;;2.85;;
7657;SDS011;8462;53.156;8.220;2022-08-21T09:01:34;7.63;;;3.25;;
7657;SDS011;8462;53.156;8.220;2022-08-21T09:04:03;7.18;;;2.40;;
7657;SDS011;8462;53.156;8.220;2022-08-21T09:06:37;8.27;;;2.97;;
7657;SDS011;8462;53.156;8.220;2022-08-21T09:09:19;6.05;;;2.65;;
7657;SDS011;8462;53.156;8.220;2022-08-21T09:11:57;5.22;;;2.45;;
7657;SDS011;8462;53.156;8.220;2022-08-21T09:14:31;5.20;;;2.65;;
7657;SDS011;8462;53.156;8.220;2022-08-21T09:17:13;8.77;;;2.47;;
7657;SDS011;8462;53.156;8.220;2022-08-21T09:19:55;3.70;;;2.50;;
7657;SDS011;8462;53.156;8.220;2022-08-21T09:22:33;6.63;;;2.35;;
7657;SDS011;8462;53.156;8.220;2022-08-21T09:25:11;6.45;;;2.53;;
7657;SDS011;8462;53.156;8.220;2022-08-21T09:27:44;5.43;;;2.15;;
7657;SDS011;8462;53.156;8.220;2022-08-21T09:30:12;3.95;;;1.60;;
7657;SDS011;8462;53.156;8.220;2022-08-21T09:32:40;4.72;;;1.70;;
7657;SDS011;8462;53.156;8.220;2022-08-21T09:35:10;3.13;;;1.42;;
7657;SDS011;8462;53.156;8.220;2022-08-21T09:37:47;4.38;;;1.85;;
7657;SDS011;8462;53.156;8.220;2022-08-21T09:40:18;7.85;;;1.83;;
7657;SDS011;8462;53.156;8.220;2022-08-21T09:42:59;3.63;;;1.60;;
7657;SDS011;8462;53.156;8.220;2022-08-21T09:45:27;6.13;;;1.52;;
7657;SDS011;8462;53.156;8.220;2022-08-21T09:47:54;2.85;;;1.73;;
7657;SDS011;8462;53.156;8.220;2022-08-21T09:50:24;4.47;;;1.83;;
7657;SDS011;8462;53.156;8.220;2022-08-21T09:52:52;4.70;;;1.98;;
7657;SDS011;8462;53.156;8.220;2022-08-21T09:55:23;2.72;;;1.67;;
7657;SDS011;8462;53.156;8.220;2022-08-21T09:58:15;3.70;;;1.60;;
7657;SDS011;8462;53.156;8.220;2022-08-21T10:00:43;3.42;;;1.70;;
7657;SDS011;8462;53.156;8.220;2022-08-21T10:03:13;3.45;;;1.55;;
7657;SDS011;8462;53.156;8.220;2022-08-21T10:05:55;4.28;;;2.03;;
7657;SDS011;8462;53.156;8.220;2022-08-21T10:08:25;4.25;;;1.90;;
7657;SDS011;8462;53.156;8.220;2022-08-21T10:10:56;3.47;;;1.90;;
7657;SDS011;8462;53.156;8.220;2022-08-21T10:13:30;3.47;;;1.52;;
7657;SDS011;8462;53.156;8.220;2022-08-21T10:16:10;5.65;;;2.55;;
7657;SDS011;8462;53.156;8.220;2022-08-21T10:18:56;7.40;;;1.80;;
7657;SDS011;8462;53.156;8.220;2022-08-21T10:21:35;5.32;;;3.60;;
7657;SDS011;8462;53.156;8.220;2022-08-21T10:24:11;6.15;;;3.78;;
7657;SDS011;8462;53.156;8.220;2022-08-21T10:26:47;6.00;;;2.20;;
7657;SDS011;8462;53.156;8.220;2022-08-21T10:29:25;3.80;;;1.48;;
7657;SDS011;8462;53.156;8.220;2022-08-21T10:32:05;3.17;;;1.60;;
7657;SDS011;8462;53.156;8.220;2022-08-21T10:34:43;6.53;;;2.03;;
7657;SDS011;8462;53.156;8.220;2022-08-21T10:37:21;8.20;;;3.25;;
7657;SDS011;8462;53.156;8.220;2022-08-21T10:40:02;3.75;;;2.13;;
7657;SDS011;8462;53.156;8.220;2022-08-21T10:42:40;4.88;;;2.13;;
7657;SDS011;8462;53.156;8.220;2022-08-21T10:45:19;5.72;;;1.40;;
7657;SDS011;8462;53.156;8.220;2022-08-21T10:47:58;2.55;;;1.42;;
7657;SDS011;8462;53.156;8.220;2022-08-21T10:50:31;6.25;;;2.10;;
7657;SDS011;8462;53.156;8.220;2022-08-21T10:53:11;3.80;;;1.80;;
7657;SDS011;8462;53.156;8.220;2022-08-21T10:55:59;5.10;;;1.92;;
7657;SDS011;8462;53.156;8.220;2022-08-21T10:58:31;3.03;;;1.67;;
7657;SDS011;8462;53.156;8.220;2022-08-21T11:01:04;2.45;;;1.50;;
7657;SDS011;8462;53.156;8.220;2022-08-21T11:03:37;3.35;;;1.60;;
7657;SDS011;8462;53.156;8.220;2022-08-21T11:06:09;2.30;;;1.40;;
7657;SDS011;8462;53.156;8.220;2022-08-21T11:08:42;3.95;;;2.35;;
7657;SDS011;8462;53.156;8.220;2022-08-21T11:11:13;3.67;;;1.50;;
7657;SDS011;8462;53.156;8.220;2022-08-21T11:13:47;6.18;;;2.08;;
7657;SDS011;8462;53.156;8.220;2022-08-21T11:16:20;1.95;;;1.67;;
7657;SDS011;8462;53.156;8.220;2022-08-21T11:18:57;2.70;;;1.63;;
7657;SDS011;8462;53.156;8.220;2022-08-21T11:21:32;4.13;;;1.70;;
7657;SDS011;8462;53.156;8.220;2022-08-21T11:24:10;3.55;;;1.92;;
7657;SDS011;8462;53.156;8.220;2022-08-21T11:26:47;3.70;;;1.52;;
7657;SDS011;8462;53.156;8.220;2022-08-21T11:29:19;3.33;;;1.88;;
7657;SDS011;8462;53.156;8.220;2022-08-21T11:31:54;6.38;;;1.70;;
7657;SDS011;8462;53.156;8.220;2022-08-21T11:34:35;5.47;;;1.52;;
7657;SDS011;8462;53.156;8.220;2022-08-21T11:37:14;5.43;;;2.03;;
7657;SDS011;8462;53.156;8.220;2022-08-21T11:39:52;2.38;;;2.05;;
7657;SDS011;8462;53.156;8.220;2022-08-21T11:42:26;4.35;;;2.15;;
7657;SDS011;8462;53.156;8.220;2022-08-21T11:45:03;3.47;;;1.52;;
7657;SDS011;8462;53.156;8.220;2022-08-21T11:47:51;2.88;;;1.55;;
7657;SDS011;8462;53.156;8.220;2022-08-21T11:50:23;4.38;;;1.30;;
7657;SDS011;8462;53.156;8.220;2022-08-21T11:52:55;4.28;;;1.63;;
7657;SDS011;8462;53.156;8.220;2022-08-21T11:55:28;3.03;;;1.75;;
7657;SDS011;8462;53.156;8.220;2022-08-21T11:57:59;3.95;;;1.60;;
7657;SDS011;8462;53.156;8.220;2022-08-21T12:00:32;3.90;;;1.40;;
7657;SDS011;8462;53.156;8.220;2022-08-21T12:03:06;4.78;;;1.90;;
7657;SDS011;8462;53.156;8.220;2022-08-21T12:05:37;7.45;;;1.60;;
7657;SDS011;8462;53.156;8.220;2022-08-21T12:08:11;3.05;;;1.55;;
7657;SDS011;8462;53.156;8.220;2022-08-21T12:10:41;1.60;;;1.10;;
7657;SDS011;8462;53.156;8.220;2022-08-21T12:13:21;3.63;;;1.30;;
7657;SDS011;8462;53.156;8.220;2022-08-21T12:15:49;2.20;;;1.13;;
7657;SDS011;8462;53.156;8.220;2022-08-21T12:18:23;2.53;;;1.40;;
7657;SDS011;8462;53.156;8.220;2022-08-21T12:21:00;4.45;;;1.60;;
7657;SDS011;8462;53.156;8.220;2022-08-21T12:23:31;3.35;;;1.42;;
7657;SDS011;8462;53.156;8.220;2022-08-21T12:26:10;3.40;;;1.40;;
7657;SDS011;8462;53.156;8.220;2022-08-21T12:28:50;3.33;;;1.55;;
7657;SDS011;8462;53.156;8.220;2022-08-21T12:31:22;7.10;;;2.13;;
7657;SDS011;8462;53.156;8.220;2022-08-21T12:33:54;1.60;;;1.27;;
7657;SDS011;8462;53.156;8.220;2022-08-21T12:36:25;5.13;;;1.60;;
7657;SDS011;8462;53.156;8.220;2022-08-21T12:39:14;3.05;;;1.27;;
7657;SDS011;8462;53.156;8.220;2022-08-21T12:41:47;2.03;;;1.23;;
7657;SDS011;8462;53.156;8.220;2022-08-21T12:44:21;4.43;;;1.42;;
7657;SDS011;8462;53.156;8.220;2022-08-21T12:46:55;2.95;;;1.40;;
7657;SDS011;8462;53.156;8.220;2022-08-21T12:49:26;4.00;;;2.10;;
7657;SDS011;8462;53.156;8.220;2022-08-21T12:52:01;2.47;;;1.58;;
7657;SDS011;8462;53.156;8.220;2022-08-21T12:54:32;3.50;;;1.92;;
7657;SDS011;8462;53.156;8.220;2022-08-21T12:57:06;2.35;;;1.27;;
7657;SDS011;8462;53.156;8.220;2022-08-21T12:59:36;3.20;;;1.30;;
7657;SDS011;8462;53.156;8.220;2022-08-21T13:02:06;3.38;;;1.63;;
7657;SDS011;8462;53.156;8.220;2022-08-21T13:04:42;3.33;;;1.25;;
7657;SDS011;8462;53.156;8.220;2022-08-21T13:07:10;3.05;;;1.45;;
7657;SDS011;8462;53.156;8.220;2022-08-21T13:09:41;5.00;;;1.10;;
7657;SDS011;8462;53.156;8.220;2022-08-21T13:12:14;3.88;;;1.60;;
7657;SDS011;8462;53.156;8.220;2022-08-21T13:14:49;3.05;;;1.52;;
7657;SDS011;8462;53.156;8.220;2022-08-21T13:17:22;5.03;;;1.40;;
7657;SDS011;8462;53.156;8.220;2022-08-21T13:19:55;3.55;;;1.92;;
7657;SDS011;8462;53.156;8.220;2022-08-21T13:22:23;4.85;;;1.75;;
7657;SDS011;8462;53.156;8.220;2022-08-21T13:24:51;2.75;;;1.30;;
7657;SDS011;8462;53.156;8.220;2022-08-21T13:27:22;3.17;;;1.52;;
7657;SDS011;8462;53.156;8.220;2022-08-21T13:30:07;4.82;;;1.85;;
7657;SDS011;8462;53.156;8.220;2022-08-21T13:32:37;2.70;;;1.10;;
7657;SDS011;8462;53.156;8.220;2022-08-21T13:35:10;2.35;;;1.20;;
7657;SDS011;8462;53.156;8.220;2022-08-21T13:37:42;2.40;;;1.40;;
7657;SDS011;8462;53.156;8.220;2022-08-21T13:40:12;7.03;;;1.88;;
7657;SDS011;8462;53.156;8.220;2022-08-21T13:42:43;2.92;;;1.40;;
7657;SDS011;8462;53.156;8.220;2022-08-21T13:45:14;2.42;;;1.40;;
7657;SDS011;8462;53.156;8.220;2022-08-21T13:47:45;3.92;;;1.30;;
7657;SDS011;8462;53.156;8.220;2022-08-21T13:50:14;1.48;;;0.93;;
7657;SDS011;8462;53.156;8.220;2022-08-21T13:52:47;4.03;;;1.50;;
7657;SDS011;8462;53.156;8.220;2022-08-21T13:55:22;3.58;;;1.60;;
7657;SDS011;8462;53.156;8.220;2022-08-21T13:57:59;2.50;;;1.17;;
7657;SDS011;8462;53.156;8.220;2022-08-21T14:00:28;3.17;;;1.50;;
7657;SDS011;8462;53.156;8.220;2022-08-21T14:03:00;2.40;;;1.45;;
7657;SDS011;8462;53.156;8.220;2022-08-21T14:05:33;2.10;;;1.15;;
7657;SDS011;8462;53.156;8.220;2022-08-21T14:08:04;2.08;;;1.50;;
7657;SDS011;8462;53.156;8.220;2022-08-21T14:10:35;1.52;;;1.20;;
7657;SDS011;8462;53.156;8.220;2022-08-21T14:13:14;3.13;;;1.30;;
7657;SDS011;8462;53.156;8.220;2022-08-21T14:15:56;2.85;;;1.45;;
7657;SDS011;8462;53.156;8.220;2022-08-21T14:18:25;1.73;;;1.08;;
7657;SDS011;8462;53.156;8.220;2022-08-21T14:20:52;2.25;;;1.02;;
7657;SDS011;8462;53.156;8.220;2022-08-21T14:23:32;3.10;;;1.17;;
7657;SDS011;8462;53.156;8.220;2022-08-21T14:26:01;2.33;;;1.63;;
7657;SDS011;8462;53.156;8.220;2022-08-21T14:28:34;2.28;;;1.13;;
7657;SDS011;8462;53.156;8.220;2022-08-21T14:31:12;3.90;;;1.70;;
7657;SDS011;8462;53.156;8.220;2022-08-21T14:33:41;1.65;;;1.10;;
7657;SDS011;8462;53.156;8.220;2022-08-21T14:36:08;2.55;;;1.20;;
7657;SDS011;8462;53.156;8.220;2022-08-21T14:38:36;1.48;;;1.10;;
7657;SDS011;8462;53.156;8.220;2022-08-21T14:41:08;1.98;;;0.90;;
7657;SDS011;8462;53.156;8.220;2022-08-21T14:43:43;1.77;;;0.93;;
7657;SDS011;8462;53.156;8.220;2022-08-21T14:46:11;3.90;;;1.27;;
7657;SDS011;8462;53.156;8.220;2022-08-21T14:48:49;3.72;;;1.20;;
7657;SDS011;8462;53.156;8.220;2022-08-21T14:51:16;1.25;;;1.15;;
7657;SDS011;8462;53.156;8.220;2022-08-21T14:53:46;4.22;;;1.80;;
7657;SDS011;8462;53.156;8.220;2022-08-21T14:56:14;1.70;;;1.20;;
7657;SDS011;8462;53.156;8.220;2022-08-21T14:58:42;3.67;;;1.38;;
7657;SDS011;8462;53.156;8.220;2022-08-21T15:01:14;1.45;;;1.23;;
7657;SDS011;8462;53.156;8.220;2022-08-21T15:03:43;2.28;;;1.00;;
7657;SDS011;8462;53.156;8.220;2022-08-21T15:06:11;2.22;;;1.40;;
7657;SDS011;8462;53.156;8.220;2022-08-21T15:08:38;2.15;;;1.00;;
7657;SDS011;8462;53.156;8.220;2022-08-21T15:11:06;3.25;;;1.10;;
7657;SDS011;8462;53.156;8.220;2022-08-21T15:13:35;2.38;;;1.08;;
7657;SDS011;8462;53.156;8.220;2022-08-21T15:16:07;1.42;;;1.00;;
7657;SDS011;8462;53.156;8.220;2022-08-21T15:18:36;2.03;;;1.10;;
7657;SDS011;8462;53.156;8.220;2022-08-21T15:21:03;3.70;;;1.23;;
7657;SDS011;8462;53.156;8.220;2022-08-21T15:23:30;2.90;;;1.45;;
7657;SDS011;8462;53.156;8.220;2022-08-21T15:25:57;2.88;;;1.20;;
7657;SDS011;8462;53.156;8.220;2022-08-21T15:28:24;3.38;;;1.30;;
7657;SDS011;8462;53.156;8.220;2022-08-21T15:30:51;3.17;;;2.10;;
7657;SDS011;8462;53.156;8.220;2022-08-21T15:33:20;1.95;;;1.10;;